Time;durP1;ratioP1;P1;durP2;ratioP2;P2;SDS_P1;SDS_P2;PMS_P1;PMS_P2;Temp;Humidity;BMP_temperature;BMP_pressure;BME280_temperature;BME280_humidity;BME280_pressure;Samples;Min_cycle;Max_cycle;Signal;HPM_P1;HPM_P2
2023/01/17 00:01:39;;;;;;;45.27;28.07;;;;;;;5.49;70.62;97353.72;6065864;23;101646;-77
2023/01/17 00:12:19;;;;;;;44.73;25.97;;;;;;;5.45;70.49;97337.47;6061461;23;101486;-76
2023/01/17 00:14:44;;;;;;;42.30;26.67;;;;;;;5.51;70.12;97349.28;6088045;23;98412;-77
2023/01/17 00:17:10;;;;;;;41.00;24.43;;;;;;;5.56;69.96;97344.63;6090664;23;96623;-77
2023/01/17 01:34:17;;;;;;;46.20;25.73;;;;;;;4.25;73.38;97342.75;6044823;23;96795;-77
2023/01/17 01:36:43;;;;;;;42.40;25.97;;;;;;;4.26;73.45;97352.22;6036686;23;101111;-77
2023/01/17 01:39:08;;;;;;;46.67;25.07;;;;;;;4.20;73.52;97352.56;6016362;23;101224;-77
2023/01/17 01:41:34;;;;;;;43.03;24.37;;;;;;;4.14;73.74;97356.31;6038425;23;96687;-78
2023/01/17 01:43:59;;;;;;;38.00;21.53;;;;;;;4.18;73.24;97344.84;6037995;23;97116;-76
2023/01/17 01:46:35;;;;;;;36.90;21.53;;;;;;;4.25;72.95;97338.41;6013119;23;100901;-77
2023/01/17 01:49:04;;;;;;;35.47;19.47;;;;;;;4.20;72.61;97327.41;6062415;23;98725;-76
2023/01/17 01:51:37;;;;;;;32.07;19.53;;;;;;;4.26;72.65;97334.88;6061985;23;97011;-78
2023/01/17 01:54:16;;;;;;;29.43;16.67;;;;;;;4.10;71.94;97300.28;6014123;23;97124;-77
2023/01/17 01:56:43;;;;;;;18.60;10.37;;;;;;;4.19;71.47;97335.28;6014149;23;101686;-77
2023/01/17 01:59:10;;;;;;;13.33;8.33;;;;;;;4.12;71.31;97323.59;6037481;23;101596;-77
2023/01/17 02:01:36;;;;;;;14.00;7.93;;;;;;;4.12;71.05;97318.38;6038216;23;97022;-77
2023/01/17 02:04:02;;;;;;;12.50;7.93;;;;;;;4.24;70.85;97336.69;6038425;23;97138;-77
2023/01/17 02:06:34;;;;;;;12.17;7.67;;;;;;;4.20;70.73;97339.56;6037287;23;97551;-77
2023/01/17 02:09:06;;;;;;;11.47;7.60;;;;;;;4.24;70.57;97341.91;6038804;23;98329;-77
2023/01/17 02:11:32;;;;;;;12.80;7.77;;;;;;;4.25;70.48;97334.97;6013231;23;97362;-77
2023/01/17 02:13:58;;;;;;;13.17;6.73;;;;;;;4.21;70.01;97331.69;6014188;23;97526;-77
2023/01/17 02:16:53;;;;;;;11.13;6.50;;;;;;;4.25;70.05;97330.59;6036078;23;101554;-77
2023/01/17 02:19:27;;;;;;;9.90;6.10;;;;;;;4.27;69.79;97336.53;6003762;23;100843;-77
2023/01/17 02:22:13;;;;;;;10.07;6.00;;;;;;;4.18;69.27;97318.03;6038475;23;97294;-78
2023/01/17 02:24:51;;;;;;;10.73;5.87;;;;;;;4.26;69.52;97344.44;6002487;23;96937;-78
2023/01/17 02:27:32;;;;;;;9.77;5.87;;;;;;;4.25;69.08;97342.75;6062175;23;98348;-77
2023/01/17 02:30:35;;;;;;;8.10;5.27;;;;;;;4.25;69.43;97342.75;6059474;23;101020;-77
2023/01/17 02:33:13;;;;;;;9.37;6.30;;;;;;;4.24;69.21;97339.31;6062699;23;96705;-78
2023/01/17 02:36:06;;;;;;;7.97;5.13;;;;;;;4.28;69.22;97343.41;6087203;23;97058;-77
2023/01/17 02:38:44;;;;;;;7.03;4.43;;;;;;;4.21;68.77;97312.69;6086363;23;98046;-77
2023/01/17 02:41:17;;;;;;;6.67;3.87;;;;;;;4.28;68.17;97317.44;6062702;23;101727;-78
2023/01/17 02:43:43;;;;;;;8.13;4.80;;;;;;;4.29;68.11;97326.91;6060662;23;97231;-77
2023/01/17 02:46:08;;;;;;;6.17;4.33;;;;;;;4.25;68.22;97316.78;6086752;23;97269;-79
2023/01/17 02:48:35;;;;;;;8.40;4.87;;;;;;;4.25;68.61;97322.00;6033520;23;101235;-78
2023/01/17 02:51:13;;;;;;;8.57;6.53;;;;;;;4.28;68.24;97314.03;6063033;23;97358;-78
2023/01/17 02:53:57;;;;;;;8.17;4.83;;;;;;;4.34;68.11;97311.06;6085875;23;96951;-78
2023/01/17 02:56:41;;;;;;;7.97;4.20;;;;;;;4.35;67.77;97310.16;6060972;23;96844;-78
2023/01/17 02:59:30;;;;;;;8.70;5.50;;;;;;;4.36;68.03;97310.97;6087334;23;97447;-78
2023/01/17 03:02:26;;;;;;;6.73;4.40;;;;;;;4.26;68.14;97314.09;6058886;23;101343;-79
2023/01/17 03:05:19;;;;;;;6.93;4.53;;;;;;;4.17;68.39;97313.78;6062108;23;97143;-78
2023/01/17 03:07:47;;;;;;;5.30;4.13;;;;;;;4.15;68.33;97307.81;6061813;23;97328;-78
2023/01/17 03:10:15;;;;;;;5.33;3.67;;;;;;;4.17;68.86;97309.41;6062138;23;101273;-78
2023/01/17 03:12:41;;;;;;;6.13;4.40;;;;;;;4.17;68.68;97313.78;6036136;23;101195;-78
2023/01/17 03:15:11;;;;;;;6.60;4.30;;;;;;;4.04;68.51;97291.09;6062801;23;97287;-78
2023/01/17 03:17:37;;;;;;;5.43;4.17;;;;;;;4.22;68.46;97314.38;6061365;23;97580;-78
2023/01/17 03:20:03;;;;;;;8.27;4.70;;;;;;;4.23;68.50;97316.88;6062737;23;101526;-78
2023/01/17 03:22:29;;;;;;;7.23;4.60;;;;;;;4.30;68.41;97326.00;6036765;23;101264;-78
2023/01/17 03:24:55;;;;;;;6.27;4.47;;;;;;;4.43;67.58;97327.91;6037457;23;97242;-77
2023/01/17 03:27:20;;;;;;;5.67;3.90;;;;;;;4.41;66.95;97327.13;6037722;23;96907;-78
2023/01/17 03:29:46;;;;;;;6.13;3.80;;;;;;;4.47;67.50;97329.38;6042502;23;101080;-78
2023/01/17 03:32:12;;;;;;;5.80;4.00;;;;;;;4.42;66.90;97328.81;6037709;23;100787;-78
2023/01/17 03:34:37;;;;;;;5.97;3.73;;;;;;;4.47;66.81;97321.59;6036237;23;96648;-79
2023/01/17 03:37:03;;;;;;;5.57;4.03;;;;;;;4.46;66.55;97320.75;6014100;23;97077;-79
2023/01/17 03:39:28;;;;;;;4.97;3.67;;;;;;;4.43;66.61;97313.16;6036739;23;100918;-79
2023/01/17 03:41:54;;;;;;;3.97;3.20;;;;;;;4.42;67.05;97337.47;6037578;23;100738;-78
2023/01/17 03:44:19;;;;;;;4.30;3.20;;;;;;;4.40;66.79;97326.31;6061358;23;97026;-79
2023/01/17 03:46:45;;;;;;;6.07;3.57;;;;;;;4.28;66.64;97317.44;6037794;23;96817;-78
2023/01/17 03:49:10;;;;;;;5.03;3.57;;;;;;;4.24;66.90;97328.09;6037315;23;100764;-77
2023/01/17 03:51:36;;;;;;;5.27;3.27;;;;;;;4.19;67.07;97328.34;6037803;23;97292;-77
2023/01/17 03:54:02;;;;;;;4.93;3.33;;;;;;;4.12;67.44;97329.59;6062247;23;97062;-78
2023/01/17 03:56:28;;;;;;;6.80;3.93;;;;;;;4.08;67.42;97328.13;6037657;23;97187;-78
2023/01/17 03:58:53;;;;;;;6.97;4.93;;;;;;;4.00;67.59;97323.34;6036398;23;101062;-77
2023/01/17 04:01:19;;;;;;;8.43;4.90;;;;;;;3.91;68.08;97335.97;6062031;23;97208;-79
2023/01/17 04:03:44;;;;;;;8.57;5.47;;;;;;;3.88;68.57;97336.97;6036774;23;97276;-78
2023/01/17 04:06:10;;;;;;;9.93;5.73;;;;;;;3.82;68.79;97327.78;6013802;23;96912;-78
2023/01/17 04:08:35;;;;;;;13.20;6.73;;;;;;;3.85;69.02;97337.97;6061343;23;98169;-78
2023/01/17 04:11:01;;;;;;;10.43;5.67;;;;;;;3.90;68.67;97345.53;6036227;23;101426;-78
2023/01/17 04:13:26;;;;;;;9.40;6.50;;;;;;;3.75;69.13;97323.84;6006050;23;97165;-77
2023/01/17 04:15:52;;;;;;;12.33;6.47;;;;;;;3.71;69.16;97326.69;6037235;23;96874;-77
2023/01/17 04:18:19;;;;;;;12.60;7.27;;;;;;;3.85;68.92;97348.38;6061372;23;100466;-78
2023/01/17 04:20:45;;;;;;;14.30;7.17;;;;;;;3.79;69.08;97340.91;6032343;23;98075;-78
2023/01/17 04:23:10;;;;;;;11.53;6.87;;;;;;;3.71;69.18;97345.66;6036546;23;97236;-78
2023/01/17 04:25:36;;;;;;;12.10;7.33;;;;;;;3.51;69.56;97325.97;6036804;23;97181;-78
2023/01/17 04:28:03;;;;;;;10.87;6.50;;;;;;;3.63;69.15;97332.25;6037483;23;101277;-78
2023/01/17 04:30:29;;;;;;;13.00;7.40;;;;;;;3.75;69.19;97343.75;6038036;23;100884;-77
2023/01/17 04:32:55;;;;;;;13.03;6.93;;;;;;;3.58;69.06;97345.50;6014141;23;97089;-78
2023/01/17 04:35:20;;;;;;;10.13;6.30;;;;;;;3.61;69.24;97354.88;6038036;23;97422;-78
2023/01/17 04:37:46;;;;;;;12.77;6.80;;;;;;;3.56;69.14;97342.13;6037309;23;101805;-78
2023/01/17 04:40:12;;;;;;;11.77;6.73;;;;;;;3.43;69.65;97338.50;6038786;23;97289;-78
2023/01/17 04:42:38;;;;;;;12.17;6.63;;;;;;;3.28;69.92;97329.78;6037867;23;97303;-78
2023/01/17 04:45:04;;;;;;;11.60;7.00;;;;;;;3.27;69.99;97341.06;6014466;23;96857;-78
2023/01/17 04:47:31;;;;;;;11.77;6.43;;;;;;;3.34;69.80;97346.78;6036665;23;98314;-78
2023/01/17 04:49:57;;;;;;;10.63;6.23;;;;;;;3.53;69.22;97341.47;6014100;23;101086;-78
2023/01/17 04:52:23;;;;;;;10.63;6.17;;;;;;;3.52;68.88;97348.41;6038309;23;97110;-78
2023/01/17 04:54:49;;;;;;;7.43;5.33;;;;;;;3.50;68.75;97344.22;6038329;23;96720;-77
2023/01/17 04:57:15;;;;;;;10.40;5.70;;;;;;;3.43;69.07;97353.22;6014064;23;101616;-78
2023/01/17 04:59:42;;;;;;;7.93;4.53;;;;;;;3.35;69.08;97359.66;6061963;23;97941;-78
2023/01/17 05:02:07;;;;;;;6.63;4.50;;;;;;;3.29;69.49;97352.22;6062623;23;96994;-78
2023/01/17 05:04:33;;;;;;;8.80;5.10;;;;;;;3.31;69.36;97359.91;6037517;23;97324;-78
2023/01/17 05:06:59;;;;;;;7.67;4.17;;;;;;;3.31;69.26;97352.13;6038369;23;98063;-78
2023/01/17 05:09:24;;;;;;;6.70;4.70;;;;;;;3.37;69.24;97349.19;6012827;23;100488;-78
2023/01/17 05:11:51;;;;;;;6.27;3.70;;;;;;;3.42;69.01;97351.56;6037877;23;96717;-78
2023/01/17 05:14:16;;;;;;;7.37;3.87;;;;;;;3.44;68.16;97360.13;6037964;23;97063;-78
2023/01/17 05:16:42;;;;;;;6.97;3.70;;;;;;;3.40;68.22;97355.09;6061922;23;97537;-77
2023/01/17 05:19:07;;;;;;;6.20;3.67;;;;;;;3.35;68.49;97335.50;6037751;23;101802;-78
2023/01/17 05:21:33;;;;;;;5.10;3.37;;;;;;;3.40;68.44;97342.13;6037910;23;97135;-78
2023/01/17 05:23:58;;;;;;;6.17;3.40;;;;;;;3.36;68.52;97350.97;6037875;23;97331;-77
2023/01/17 05:26:24;;;;;;;4.90;3.17;;;;;;;3.21;68.78;97336.22;6062665;23;100583;-78
2023/01/17 05:28:50;;;;;;;5.10;3.07;;;;;;;3.12;68.71;97321.97;6038180;23;97941;-77
2023/01/17 05:31:16;;;;;;;4.33;3.10;;;;;;;3.28;68.62;97347.09;6039464;23;97299;-77
2023/01/17 05:33:41;;;;;;;4.30;2.80;;;;;;;3.24;68.73;97346.41;6014021;23;96823;-78
2023/01/17 05:36:07;;;;;;;3.80;3.20;;;;;;;3.24;68.74;97343.00;6060957;23;97428;-78
2023/01/17 05:38:32;;;;;;;5.13;3.10;;;;;;;3.24;68.88;97345.59;6036508;23;101768;-78
2023/01/17 05:41:03;;;;;;;3.90;2.80;;;;;;;3.16;68.55;97338.19;6038550;23;97207;-78
2023/01/17 05:43:28;;;;;;;6.00;2.87;;;;;;;3.28;68.15;97349.69;6012775;23;97342;-79
2023/01/17 05:45:54;;;;;;;7.27;3.77;;;;;;;3.28;68.14;97349.69;6061845;23;97388;-79
2023/01/17 05:48:20;;;;;;;3.80;2.63;;;;;;;3.37;67.70;97351.78;6058079;23;98396;-79
2023/01/17 05:50:46;;;;;;;4.77;3.03;;;;;;;3.28;67.70;97332.38;6013907;23;97116;-79
2023/01/17 05:53:13;;;;;;;4.00;2.70;;;;;;;3.43;67.74;97358.41;6039048;23;97404;-77
2023/01/17 05:55:39;;;;;;;3.50;2.37;;;;;;;3.60;66.52;97361.78;6037222;23;97291;-79
2023/01/17 05:58:06;;;;;;;4.67;2.03;;;;;;;3.67;66.49;97374.47;6013711;23;101396;-77
2023/01/17 06:00:32;;;;;;;4.50;2.30;;;;;;;3.62;66.36;97359.13;6060413;23;97104;-78
2023/01/17 06:02:59;;;;;;;2.73;2.07;;;;;;;3.74;65.89;97383.59;6008959;23;97040;-78
2023/01/17 06:05:25;;;;;;;3.90;2.10;;;;;;;3.83;65.58;97381.34;6058284;23;97160;-78
2023/01/17 06:07:50;;;;;;;3.27;2.17;;;;;;;3.79;65.28;97364.28;6033982;23;98169;-78
2023/01/17 06:10:18;;;;;;;5.80;2.93;;;;;;;3.89;65.91;97374.97;6032041;23;97289;-79
2023/01/17 06:12:44;;;;;;;3.10;2.13;;;;;;;3.84;65.15;97364.03;6011987;23;96775;-78
2023/01/17 06:15:11;;;;;;;3.27;2.00;;;;;;;3.91;65.06;97374.91;6036650;23;101264;-79
2023/01/17 06:17:37;;;;;;;2.27;1.73;;;;;;;4.02;64.50;97382.97;6013176;23;101193;-79
2023/01/17 06:20:04;;;;;;;5.87;2.23;;;;;;;4.01;64.19;97370.88;6037028;23;97269;-79
2023/01/17 06:22:30;;;;;;;4.07;2.13;;;;;;;3.97;64.25;97374.59;6011681;23;97433;-78
2023/01/17 06:24:55;;;;;;;3.27;2.03;;;;;;;4.06;64.34;97382.69;6060168;23;101341;-78
2023/01/17 06:27:21;;;;;;;3.50;1.90;;;;;;;4.09;64.32;97384.28;6036690;23;97811;-78
2023/01/17 06:29:47;;;;;;;2.83;2.20;;;;;;;4.12;63.68;97386.72;6036128;23;97349;-77
2023/01/17 06:32:13;;;;;;;4.03;2.23;;;;;;;4.07;63.66;97388.72;6012370;23;96746;-80
2023/01/17 06:34:39;;;;;;;3.00;2.00;;;;;;;4.14;63.92;97399.63;6035536;23;101070;-77
2023/01/17 06:37:04;;;;;;;2.30;1.63;;;;;;;4.20;64.03;97407.91;6013079;23;101056;-81
2023/01/17 06:39:30;;;;;;;4.63;1.90;;;;;;;4.26;63.77;97404.97;6037255;23;96653;-79
2023/01/17 06:41:56;;;;;;;2.97;1.90;;;;;;;4.29;63.76;97399.63;6038483;23;97084;-80
2023/01/17 06:44:21;;;;;;;3.10;1.70;;;;;;;4.33;63.06;97402.88;6037202;23;98414;-80
2023/01/17 06:46:47;;;;;;;5.07;2.10;;;;;;;4.24;62.86;97385.22;6036928;23;101831;-80
2023/01/17 06:49:13;;;;;;;3.77;2.17;;;;;;;4.33;62.77;97405.47;6061007;23;97104;-81
2023/01/17 06:51:39;;;;;;;3.00;2.00;;;;;;;4.28;62.94;97405.75;6034233;23;97238;-80
2023/01/17 06:54:04;;;;;;;3.00;1.97;;;;;;;4.27;62.83;97414.44;6012389;23;101671;-81
2023/01/17 06:56:31;;;;;;;3.73;1.67;;;;;;;4.28;62.87;97410.09;6036913;23;100797;-80
2023/01/17 06:58:56;;;;;;;4.30;2.00;;;;;;;4.33;63.04;97415.84;6038892;23;97050;-79
2023/01/17 08:32:32;;;;;;;5.23;2.47;;;;;;;5.01;61.68;97516.09;5096307;27;97071;-78
2023/01/17 08:34:58;;;;;;;6.67;3.17;;;;;;;5.08;61.13;97523.44;5088598;27;96946;-79
2023/01/17 08:37:23;;;;;;;9.10;4.37;;;;;;;5.05;61.45;97508.00;5047946;27;101726;-79
2023/01/17 08:39:49;;;;;;;11.00;4.20;;;;;;;5.18;61.29;97518.59;5066711;27;101595;-78
2023/01/17 08:42:14;;;;;;;10.23;5.10;;;;;;;5.25;61.29;97526.88;5066693;27;97387;-79
2023/01/17 08:44:40;;;;;;;7.77;4.17;;;;;;;5.26;60.83;97510.31;5089638;27;97242;-80
2023/01/17 08:47:05;;;;;;;8.80;3.90;;;;;;;5.46;60.27;97533.44;5098024;27;99984;-80
2023/01/17 08:49:31;;;;;;;6.57;3.83;;;;;;;5.34;60.26;97524.56;5084097;27;97525;-78
2023/01/17 08:51:57;;;;;;;9.93;4.63;;;;;;;5.38;60.63;97535.63;5050645;27;97277;-78
2023/01/17 08:54:22;;;;;;;8.73;3.63;;;;;;;5.24;60.50;97507.00;5071246;27;97098;-79
2023/01/17 08:56:48;;;;;;;6.27;3.10;;;;;;;5.40;60.72;97518.19;5085719;27;101377;-77
2023/01/17 08:59:14;;;;;;;9.17;2.83;;;;;;;5.44;60.10;97517.94;5093681;27;97927;-78
2023/01/17 09:01:40;;;;;;;5.83;2.70;;;;;;;5.59;59.60;97525.78;5085711;27;97490;-78
2023/01/17 09:04:07;;;;;;;6.90;2.80;;;;;;;5.63;60.15;97535.06;5085455;27;96955;-76
2023/01/17 09:06:36;;;;;;;8.47;3.33;;;;;;;5.71;60.50;97548.47;5073159;27;101214;-76
2023/01/17 09:09:02;;;;;;;9.70;3.93;;;;;;;5.64;59.79;97540.19;5056179;27;101460;-76
2023/01/17 09:11:27;;;;;;;8.47;3.83;;;;;;;5.58;60.39;97537.09;5064257;27;97376;-76
2023/01/17 09:13:53;;;;;;;8.23;4.33;;;;;;;5.47;60.64;97521.25;5067961;27;97405;-76
2023/01/17 09:16:18;;;;;;;6.53;3.00;;;;;;;5.58;60.68;97532.72;5064708;27;101568;-76
2023/01/17 09:18:44;;;;;;;9.27;3.63;;;;;;;5.63;60.62;97548.06;5076465;27;97842;-76
2023/01/17 09:21:14;;;;;;;6.63;3.10;;;;;;;5.72;60.72;97555.34;5074197;27;96867;-77
2023/01/17 09:23:40;;;;;;;5.73;2.47;;;;;;;5.73;59.85;97554.44;5098075;27;97239;-80
2023/01/17 09:26:06;;;;;;;3.73;2.07;;;;;;;5.79;59.43;97548.00;5068286;27;101675;-79
2023/01/17 09:28:39;;;;;;;6.53;2.30;;;;;;;5.91;58.90;97557.72;5082176;27;100836;-83
2023/01/17 09:31:07;;;;;;;5.47;2.07;;;;;;;6.00;57.72;97535.53;5072255;27;96867;-76
2023/01/17 09:33:32;;;;;;;3.60;1.93;;;;;;;6.24;58.19;97536.66;5062938;27;96871;-75
2023/01/17 09:36:03;;;;;;;3.83;1.80;;;;;;;6.48;56.94;97541.31;5043872;27;101403;-75
2023/01/17 09:38:29;;;;;;;4.90;2.23;;;;;;;6.49;57.21;97536.00;5028955;27;101219;-75
2023/01/17 09:40:55;;;;;;;4.20;1.90;;;;;;;6.64;56.80;97538.59;5057395;27;97352;-75
2023/01/17 09:43:31;;;;;;;13.93;2.60;;;;;;;6.97;56.08;97527.81;5075271;27;97548;-75
2023/01/17 09:45:57;;;;;;;4.07;1.30;;;;;;;7.25;53.02;97532.13;5087192;27;97469;-75
2023/01/17 09:48:31;;;;;;;5.67;1.70;;;;;;;7.58;53.27;97536.88;5055728;27;101785;-75
2023/01/17 09:50:59;;;;;;;2.30;1.37;;;;;;;7.91;52.15;97523.38;5066605;27;97317;-75
2023/01/17 09:53:25;;;;;;;3.80;1.60;;;;;;;8.35;51.07;97536.97;5057014;27;97169;-77
2023/01/17 09:55:58;;;;;;;3.88;1.50;;;;;;;8.81;50.14;97536.38;5072936;27;101397;-80
2023/01/17 09:58:58;;;;;;;6.22;1.52;;;;;;;8.72;49.06;97531.78;5055629;27;97435;-82
2023/01/17 10:01:49;;;;;;;8.00;1.25;;;;;;;8.54;49.13;97534.75;5037966;27;97156;-81
2023/01/17 10:04:18;;;;;;;3.42;1.15;;;;;;;8.43;48.52;97537.28;5053973;27;97122;-81
2023/01/17 10:07:21;;;;;;;9.30;1.45;;;;;;;8.52;49.01;97531.44;5073093;27;101447;-84
2023/01/17 10:10:11;;;;;;;4.47;1.35;;;;;;;8.46;49.19;97539.66;5081138;27;101363;-78
2023/01/17 10:12:49;;;;;;;3.65;1.30;;;;;;;8.33;48.69;97537.06;5070843;27;97470;-79
2023/01/17 10:15:43;;;;;;;3.95;1.40;;;;;;;8.22;48.88;97534.34;5048288;27;97297;-79
2023/01/17 10:18:51;;;;;;;9.38;1.63;;;;;;;8.19;49.99;97542.38;5061532;27;101608;-78
2023/01/17 10:21:40;;;;;;;4.60;2.28;;;;;;;8.32;49.76;97540.63;5071860;27;98585;-79
2023/01/17 10:24:20;;;;;;;7.55;2.33;;;;;;;8.60;49.17;97543.94;5057885;27;97992;-78
2023/01/17 10:26:49;;;;;;;2.90;1.52;;;;;;;8.56;48.56;97545.94;5086590;27;97244;-78
2023/01/17 10:29:18;;;;;;;4.47;2.13;;;;;;;8.74;49.17;97545.59;5059877;27;101690;-79
2023/01/17 10:31:54;;;;;;;4.68;1.58;;;;;;;8.94;47.60;97542.41;5048561;27;98431;-80
2023/01/17 10:34:36;;;;;;;3.95;1.42;;;;;;;8.94;46.92;97547.63;5064891;27;97171;-80
2023/01/17 10:37:26;;;;;;;6.00;2.00;;;;;;;8.60;47.27;97534.31;5074190;27;97203;-84
2023/01/17 10:39:55;;;;;;;5.82;1.73;;;;;;;8.53;48.75;97547.94;5072083;27;101219;-83
2023/01/17 10:42:49;;;;;;;2.92;1.42;;;;;;;8.60;48.65;97559.63;5061672;27;101455;-84
2023/01/17 10:45:25;;;;;;;3.95;1.58;;;;;;;8.71;47.57;97558.91;5046596;27;98245;-84
2023/01/17 10:47:59;;;;;;;7.68;1.77;;;;;;;8.73;48.14;97559.63;5064068;27;98413;-85
2023/01/17 10:50:27;;;;;;;2.53;1.67;;;;;;;8.68;48.59;97562.56;5059771;27;101532;-85
2023/01/17 10:53:24;;;;;;;5.80;1.27;;;;;;;8.37;48.23;97553.34;5056897;27;99606;-85
2023/01/17 10:55:53;;;;;;;5.20;1.70;;;;;;;8.13;48.95;97556.69;5059099;27;97461;-86
2023/01/17 10:58:18;;;;;;;3.38;1.42;;;;;;;8.00;49.47;97574.16;5055795;27;97292;-85
2023/01/17 11:01:00;;;;;;;3.70;1.92;;;;;;;7.90;50.11;97562.66;5059453;27;101152;-85
2023/01/17 11:03:27;;;;;;;3.10;1.35;;;;;;;8.08;49.63;97573.63;5035019;27;100227;-85
2023/01/17 11:06:20;;;;;;;2.80;1.52;;;;;;;8.06;50.09;97559.84;5036730;27;96948;-85
2023/01/17 11:08:58;;;;;;;4.68;1.95;;;;;;;8.01;50.91;97569.78;5062736;27;96987;-84
2023/01/17 11:11:32;;;;;;;3.70;1.67;;;;;;;8.01;50.42;97548.88;5064430;27;97237;-85
2023/01/17 11:14:16;;;;;;;5.70;2.60;;;;;;;7.87;50.78;97550.63;5031748;27;98187;-84
2023/01/17 11:16:42;;;;;;;5.40;1.90;;;;;;;7.85;51.13;97562.09;5065335;27;97401;-85
2023/01/17 11:19:25;;;;;;;4.28;1.88;;;;;;;7.75;51.45;97546.22;5073854;27;97042;-84
2023/01/17 11:21:53;;;;;;;5.13;2.00;;;;;;;7.72;50.69;97554.25;5031840;27;99853;-83
2023/01/17 11:24:30;;;;;;;2.40;1.70;;;;;;;7.64;51.12;97548.69;5051120;27;99784;-82
2023/01/17 11:26:57;;;;;;;5.07;2.78;;;;;;;7.55;51.23;97546.69;5072998;27;97362;-84
2023/01/17 11:29:33;;;;;;;5.25;2.38;;;;;;;7.48;50.62;97547.09;5068562;27;97884;-86
2023/01/17 11:32:30;;;;;;;8.27;3.80;;;;;;;7.48;50.05;97546.28;5033759;27;101323;-86
2023/01/17 11:35:11;;;;;;;8.55;2.78;;;;;;;7.48;50.07;97546.28;5044337;27;98202;-84
2023/01/17 11:37:37;;;;;;;17.58;6.80;;;;;;;7.53;50.03;97545.97;5068256;27;97192;-85
2023/01/17 11:40:23;;;;;;;6.72;2.80;;;;;;;7.60;49.69;97555.06;5054039;27;97255;-85
2023/01/17 11:43:00;;;;;;;6.18;2.20;;;;;;;7.61;49.77;97561.97;5064134;27;99563;-84
2023/01/17 11:45:29;;;;;;;4.22;1.60;;;;;;;7.59;49.12;97553.38;5060896;27;101396;-84
2023/01/17 11:48:06;;;;;;;5.55;1.92;;;;;;;7.58;50.35;97564.78;5051696;27;97273;-83
2023/01/17 11:50:33;;;;;;;3.95;1.40;;;;;;;7.59;49.69;97554.25;5059263;27;96783;-84
2023/01/17 11:53:18;;;;;;;2.92;1.92;;;;;;;7.62;49.70;97548.81;5052446;27;97339;-83
2023/01/17 11:56:11;;;;;;;5.50;1.80;;;;;;;7.61;50.09;97554.97;5055054;27;101657;-84
2023/01/17 11:58:39;;;;;;;8.40;2.72;;;;;;;7.67;50.06;97564.16;5073753;27;96773;-83
2023/01/17 12:01:30;;;;;;;6.38;2.30;;;;;;;7.60;50.23;97561.13;5040259;27;97084;-82
2023/01/17 12:03:58;;;;;;;64.18;23.77;;;;;;;7.66;50.78;97562.50;5081504;27;101870;-82
2023/01/17 12:06:40;;;;;;;13.02;5.40;;;;;;;7.67;50.17;97556.34;5078733;27;97912;-83
2023/01/17 12:09:21;;;;;;;6.15;2.75;;;;;;;7.59;50.54;97554.25;5075499;27;96997;-82
2023/01/17 12:15:07;;;;;;;4.50;2.63;;;;;;;7.62;50.56;97556.66;5067931;27;101037;-82
2023/01/17 12:17:45;;;;;;;10.68;2.63;;;;;;;7.63;50.30;97549.66;5070305;27;98599;-82
2023/01/17 12:20:20;;;;;;;6.20;1.85;;;;;;;7.63;50.73;97549.66;5067906;27;97270;-82
2023/01/17 12:22:56;;;;;;;9.13;2.80;;;;;;;7.64;50.48;97554.75;5054395;27;97086;-82
2023/01/17 12:25:47;;;;;;;8.15;3.70;;;;;;;7.59;50.51;97546.41;5056212;27;100472;-82
2023/01/17 12:28:26;;;;;;;3.85;2.65;;;;;;;7.60;49.74;97542.84;5068777;27;98063;-82
2023/01/17 12:31:11;;;;;;;8.57;3.00;;;;;;;7.54;50.08;97539.81;5057317;27;96830;-79
2023/01/17 12:33:48;;;;;;;3.08;1.75;;;;;;;7.53;49.67;97545.97;5055557;27;96917;-78
2023/01/17 12:36:34;;;;;;;4.22;1.60;;;;;;;7.53;49.12;97552.00;5045442;27;102045;-82
2023/01/17 12:39:02;;;;;;;9.43;1.80;;;;;;;7.49;49.19;97554.00;5051768;27;101679;-80
2023/01/17 12:41:33;;;;;;;2.30;1.27;;;;;;;7.54;49.10;97547.66;5056464;27;96854;-82
2023/01/17 12:43:59;;;;;;;5.10;2.25;;;;;;;7.43;49.00;97532.69;5040661;27;97520;-79
2023/01/17 12:46:37;;;;;;;8.55;1.92;;;;;;;7.47;48.89;97536.75;5066059;27;97907;-82
2023/01/17 12:49:26;;;;;;;5.25;1.85;;;;;;;7.36;48.54;97523.56;5059187;27;101349;-79
2023/01/17 12:51:58;;;;;;;6.55;2.00;;;;;;;7.53;48.58;97546.78;5051192;27;96762;-79
2023/01/17 12:54:34;;;;;;;5.13;1.50;;;;;;;7.43;48.65;97537.91;5036074;27;97232;-80
2023/01/17 12:57:05;;;;;;;3.88;1.60;;;;;;;7.54;48.35;97543.25;5046710;27;101380;-81
2023/01/17 13:00:01;;;;;;;4.38;1.40;;;;;;;7.49;48.01;97538.31;5055920;27;101743;-84
2023/01/17 13:02:46;;;;;;;4.40;1.67;;;;;;;7.57;48.06;97550.88;5056446;27;96957;-84
2023/01/17 13:05:24;;;;;;;3.75;1.88;;;;;;;7.51;48.68;97542.63;5049876;27;100429;-82
2023/01/17 13:08:05;;;;;;;2.88;1.40;;;;;;;7.61;47.97;97560.19;5065686;27;101330;-83
2023/01/17 13:10:39;;;;;;;2.40;1.35;;;;;;;7.63;48.71;97554.88;5088183;27;101436;-82
2023/01/17 13:13:21;;;;;;;3.50;1.98;;;;;;;7.66;48.33;97559.88;5063337;27;97024;-85
2023/01/17 13:15:49;;;;;;;9.10;2.03;;;;;;;7.72;48.24;97562.94;5065221;27;97174;-82
2023/01/17 13:18:21;;;;;;;4.28;2.08;;;;;;;7.63;48.43;97553.09;5077926;27;98441;-84
2023/01/17 13:21:05;;;;;;;4.65;2.40;;;;;;;7.90;48.16;97581.75;5056761;27;101541;-84
2023/01/17 13:23:43;;;;;;;5.70;2.28;;;;;;;7.91;48.12;97585.19;5057469;27;96860;-83
2023/01/17 13:26:19;;;;;;;5.28;1.73;;;;;;;7.85;47.24;97585.63;5079645;27;97331;-82
2023/01/17 13:29:14;;;;;;;2.63;1.60;;;;;;;7.74;46.83;97594.19;5076919;27;97919;-83
2023/01/17 13:32:17;;;;;;;2.13;1.48;;;;;;;7.64;47.03;97613.97;5068554;27;97546;-83
2023/01/17 13:35:01;;;;;;;4.45;1.30;;;;;;;7.59;46.71;97616.03;5064210;27;97186;-85
2023/01/17 13:38:11;;;;;;;6.57;2.00;;;;;;;7.41;47.62;97608.47;5052367;27;97329;-85
2023/01/17 13:40:52;;;;;;;3.22;1.60;;;;;;;7.57;47.92;97633.59;5063068;27;101694;-84
2023/01/17 13:43:19;;;;;;;3.85;1.85;;;;;;;7.37;47.46;97609.59;5056425;27;101122;-84
2023/01/17 13:45:53;;;;;;;5.85;2.13;;;;;;;7.46;48.00;97631.66;5055819;27;97124;-83
2023/01/17 13:48:18;;;;;;;9.75;2.40;;;;;;;7.49;47.32;97640.13;5047731;27;97410;-84
2023/01/17 13:50:47;;;;;;;4.95;1.80;;;;;;;7.43;47.58;97640.53;5081388;27;97673;-84
2023/01/17 13:53:33;;;;;;;4.93;1.40;;;;;;;7.44;47.52;97639.56;5054578;27;100129;-82
2023/01/17 13:56:20;;;;;;;6.35;2.17;;;;;;;7.51;47.59;97628.78;5044942;27;97193;-84
2023/01/17 13:58:56;;;;;;;8.30;1.52;;;;;;;7.47;47.22;97626.34;5068560;27;97482;-84
2023/01/17 14:01:21;;;;;;;5.00;1.63;;;;;;;7.51;47.11;97636.59;5069487;27;101114;-84
2023/01/17 14:03:50;;;;;;;5.07;2.13;;;;;;;7.46;46.65;97647.31;5068760;27;101837;-84
2023/01/17 14:06:34;;;;;;;5.25;1.77;;;;;;;7.40;47.07;97648.56;5055963;27;96776;-84
2023/01/17 14:09:01;;;;;;;13.65;3.78;;;;;;;7.40;46.58;97651.16;5061018;27;96858;-84
2023/01/17 14:11:27;;;;;;;3.42;1.70;;;;;;;7.38;47.31;97663.47;5066275;27;98150;-84
2023/01/17 14:13:52;;;;;;;6.55;2.00;;;;;;;7.40;46.54;97672.03;5073866;27;97891;-83
2023/01/17 14:16:21;;;;;;;4.65;1.60;;;;;;;7.42;46.09;97687.63;5071134;27;96882;-84
2023/01/17 14:18:47;;;;;;;6.63;2.47;;;;;;;7.35;46.53;97686.31;5075477;27;96873;-81
2023/01/17 14:21:21;;;;;;;2.92;1.67;;;;;;;7.33;45.94;97696.00;5055668;27;101572;-78
2023/01/17 14:23:53;;;;;;;7.70;2.95;;;;;;;7.26;46.09;97706.81;5071802;27;101260;-82
2023/01/17 14:26:26;;;;;;;5.25;2.00;;;;;;;7.32;45.53;97728.25;5073520;27;97175;-81
2023/01/17 14:28:52;;;;;;;5.53;2.40;;;;;;;7.09;45.19;97719.22;5067022;27;96768;-80
2023/01/17 14:31:21;;;;;;;5.88;1.67;;;;;;;7.07;45.16;97724.56;5056566;27;101392;-79
2023/01/17 14:33:46;;;;;;;5.47;1.90;;;;;;;7.12;45.06;97743.34;5039372;27;101143;-80
2023/01/17 14:36:23;;;;;;;3.70;1.92;;;;;;;7.09;45.30;97743.53;5069388;27;97111;-80
2023/01/17 14:38:49;;;;;;;5.35;2.20;;;;;;;7.06;45.47;97743.72;5069213;27;97072;-81
2023/01/17 14:41:24;;;;;;;9.77;3.20;;;;;;;6.99;45.79;97761.53;5058894;27;101469;-81
2023/01/17 14:43:50;;;;;;;11.80;5.37;;;;;;;6.91;46.30;97744.66;5071441;27;98061;-80
2023/01/17 14:46:31;;;;;;;7.03;2.55;;;;;;;6.95;46.54;97756.56;5076906;27;97162;-80
2023/01/17 14:49:05;;;;;;;6.00;2.87;;;;;;;6.91;46.87;97748.09;5070537;27;97451;-79
2023/01/17 14:51:36;;;;;;;6.32;2.55;;;;;;;6.95;46.97;97756.56;5063435;27;98075;-79
2023/01/17 14:54:05;;;;;;;4.00;2.22;;;;;;;6.73;46.98;97725.75;5069903;27;97974;-84
2023/01/17 14:56:34;;;;;;;4.82;2.20;;;;;;;6.82;47.22;97750.44;5055707;27;97043;-78